Time;durP1;ratioP1;P1;durP2;ratioP2;P2;SDS_P1;SDS_P2;PMS_P1;PMS_P2;Temp;Humidity;BMP_temperature;BMP_pressure;BME280_temperature;BME280_humidity;BME280_pressure;Samples;Min_cycle;Max_cycle;Signal;HPM_P1;HPM_P2
2021/03/14 00:00:52;;;;;;;0.30;0.30;;;6.70;99.90;;;;;;4977380;28;20219;-76
2021/03/14 00:03:20;;;;;;;0.20;0.20;;;6.60;99.90;;;;;;4994750;28;20216;-75
2021/03/14 00:05:47;;;;;;;0.20;0.20;;;6.70;99.90;;;;;;4994608;28;20165;-74
2021/03/14 00:08:14;;;;;;;0.45;0.45;;;6.40;99.90;;;;;;4994617;28;20188;-76
2021/03/14 00:10:42;;;;;;;0.75;0.75;;;6.40;99.90;;;;;;4977153;28;20207;-75
2021/03/14 00:13:09;;;;;;;0.20;0.20;;;6.30;99.90;;;;;;4994571;28;20176;-75
2021/03/14 00:15:35;;;;;;;0.20;0.20;;;6.30;99.90;;;;;;4994571;28;20168;-76
2021/03/14 00:18:01;;;;;;;0.30;0.30;;;6.30;99.90;;;;;;4994351;28;20188;-75
2021/03/14 00:20:26;;;;;;;0.20;0.20;;;6.30;99.90;;;;;;4994483;28;20169;-75
2021/03/14 00:22:52;;;;;;;0.20;0.20;;;6.30;99.90;;;;;;4994096;28;20221;-75
2021/03/14 00:25:18;;;;;;;0.10;0.10;;;6.30;99.90;;;;;;4994666;28;20165;-75
2021/03/14 00:27:44;;;;;;;0.20;0.20;;;6.10;99.90;;;;;;4994206;28;20193;-75
2021/03/14 00:30:13;;;;;;;0.20;0.20;;;6.10;99.90;;;;;;4994331;28;20185;-75
2021/03/14 00:32:38;;;;;;;0.20;0.20;;;6.20;99.90;;;;;;4994344;28;20256;-75
2021/03/14 00:35:06;;;;;;;0.20;0.20;;;6.20;99.90;;;;;;4994223;28;20240;-75
2021/03/14 00:37:32;;;;;;;0.30;0.30;;;6.20;99.90;;;;;;4994113;28;20220;-75
2021/03/14 00:39:57;;;;;;;1.02;1.00;;;6.20;99.90;;;;;;4994121;28;20200;-76
2021/03/14 00:42:23;;;;;;;0.20;0.20;;;6.20;99.90;;;;;;4993892;28;20280;-75
2021/03/14 00:44:48;;;;;;;0.43;0.43;;;6.20;99.90;;;;;;4976654;28;20543;-76
2021/03/14 00:47:14;;;;;;;0.20;0.20;;;6.20;99.90;;;;;;4993917;28;20201;-76
2021/03/14 00:49:40;;;;;;;0.32;0.32;;;6.10;99.90;;;;;;4993898;28;20169;-75
2021/03/14 00:52:06;;;;;;;0.20;0.20;;;6.10;99.90;;;;;;4994230;28;20621;-75
2021/03/14 00:54:33;;;;;;;0.17;0.17;;;6.00;99.90;;;;;;4993814;28;20181;-74
2021/03/14 00:56:59;;;;;;;0.32;0.32;;;6.00;99.90;;;;;;4993001;28;20287;-76
2021/03/14 00:59:24;;;;;;;0.20;0.20;;;6.00;99.90;;;;;;4993908;28;20640;-76
2021/03/14 01:01:50;;;;;;;0.20;0.20;;;6.00;99.90;;;;;;4993693;28;20181;-76
2021/03/14 01:04:15;;;;;;;1.38;1.27;;;6.00;99.90;;;;;;4993755;28;20173;-76
2021/03/14 01:06:41;;;;;;;0.20;0.20;;;6.00;99.90;;;;;;4993568;28;20223;-76
2021/03/14 01:09:07;;;;;;;0.20;0.20;;;6.00;99.90;;;;;;4993718;28;20165;-76
2021/03/14 01:11:32;;;;;;;0.43;0.43;;;6.00;99.90;;;;;;4993720;28;20173;-76
2021/03/14 01:13:58;;;;;;;0.20;0.20;;;6.00;99.90;;;;;;4993611;28;20176;-76
2021/03/14 01:16:23;;;;;;;0.30;0.30;;;6.00;99.90;;;;;;4993526;28;20288;-76
2021/03/14 01:18:49;;;;;;;0.70;0.68;;;5.90;99.90;;;;;;4993831;28;20161;-76
2021/03/14 01:21:15;;;;;;;0.20;0.20;;;5.90;99.90;;;;;;4993358;28;20256;-76
2021/03/14 01:23:40;;;;;;;0.73;0.73;;;6.00;99.90;;;;;;4993520;28;20264;-76
2021/03/14 01:26:07;;;;;;;2.17;0.63;;;6.00;99.90;;;;;;4993435;28;20172;-76
2021/03/14 01:28:32;;;;;;;0.20;0.20;;;6.00;99.90;;;;;;4993598;28;20248;-76
2021/03/14 01:30:58;;;;;;;0.20;0.20;;;5.90;99.90;;;;;;4976141;28;20272;-76
2021/03/14 01:33:23;;;;;;;0.35;0.35;;;5.90;99.90;;;;;;4993499;28;20599;-75
2021/03/14 01:35:49;;;;;;;0.35;0.35;;;5.70;99.90;;;;;;4993538;28;20519;-76
2021/03/14 01:38:14;;;;;;;0.50;0.50;;;5.90;99.90;;;;;;4993415;28;20189;-76
2021/03/14 01:40:40;;;;;;;0.20;0.20;;;5.80;99.90;;;;;;4993444;28;20197;-76
2021/03/14 01:43:06;;;;;;;0.20;0.20;;;5.90;99.90;;;;;;4993390;28;20259;-75
2021/03/14 01:45:31;;;;;;;0.20;0.20;;;5.80;99.90;;;;;;4993411;28;20162;-76
2021/03/14 01:48:00;;;;;;;0.20;0.20;;;5.80;99.90;;;;;;4993469;28;20239;-76
2021/03/14 01:50:27;;;;;;;0.40;0.40;;;5.70;99.90;;;;;;4993433;28;20169;-76
2021/03/14 01:52:55;;;;;;;0.28;0.28;;;5.80;99.90;;;;;;4993694;28;20539;-76
2021/03/14 01:55:21;;;;;;;0.30;0.30;;;5.80;99.90;;;;;;4993305;28;20157;-76
2021/03/14 01:57:47;;;;;;;0.20;0.20;;;5.70;99.90;;;;;;4993216;28;20263;-76
2021/03/14 02:00:23;;;;;;;3.72;1.75;;;5.70;99.90;;;;;;4993229;28;20222;-76
2021/03/14 02:02:49;;;;;;;0.20;0.20;;;5.70;99.90;;;;;;4993108;28;20251;-76
2021/03/14 02:05:17;;;;;;;1.02;0.50;;;5.70;99.90;;;;;;4993337;28;20162;-76
2021/03/14 02:07:44;;;;;;;0.25;0.25;;;5.60;99.90;;;;;;4994816;28;20189;-76
2021/03/14 02:10:13;;;;;;;0.57;0.57;;;5.60;99.90;;;;;;4996968;28;20161;-75
2021/03/14 02:12:47;;;;;;;28.05;0.85;;;5.60;99.90;;;;;;4996805;28;20192;-75
2021/03/14 02:15:14;;;;;;;0.63;0.63;;;5.60;99.90;;;;;;4996799;28;20158;-76
2021/03/14 02:17:42;;;;;;;0.70;0.70;;;5.60;99.90;;;;;;4996695;28;20595;-76
2021/03/14 02:20:31;;;;;;;0.20;0.20;;;5.70;99.90;;;;;;4996529;28;20514;-76
2021/03/14 02:23:28;;;;;;;0.47;0.47;;;5.70;99.90;;;;;;4996383;28;20232;-76
2021/03/14 02:26:01;;;;;;;1.05;1.05;;;5.70;99.90;;;;;;4996549;28;20158;-76
2021/03/14 02:28:27;;;;;;;1.15;1.00;;;5.70;99.90;;;;;;4996591;28;20173;-76
2021/03/14 02:30:54;;;;;;;0.43;0.43;;;5.70;99.90;;;;;;4996373;28;20181;-76
2021/03/14 02:33:23;;;;;;;0.40;0.40;;;5.60;99.90;;;;;;4996366;28;20162;-76
2021/03/14 02:35:53;;;;;;;0.20;0.20;;;5.60;99.90;;;;;;4996350;28;20645;-76
2021/03/14 02:38:19;;;;;;;0.30;0.30;;;5.70;99.90;;;;;;4996489;28;20200;-76
2021/03/14 02:40:46;;;;;;;0.20;0.20;;;5.70;99.90;;;;;;4996323;28;20248;-76
2021/03/14 02:43:12;;;;;;;0.55;0.55;;;5.70;99.90;;;;;;4996106;28;20232;-76
2021/03/14 02:45:39;;;;;;;0.73;0.73;;;5.70;99.90;;;;;;4996121;28;20154;-76
2021/03/14 02:48:06;;;;;;;0.20;0.20;;;5.80;99.90;;;;;;4996137;28;20185;-76
2021/03/14 02:50:32;;;;;;;0.22;0.22;;;5.80;99.90;;;;;;4996038;28;20196;-75
2021/03/14 02:52:59;;;;;;;0.30;0.30;;;5.60;99.90;;;;;;4996418;28;20174;-75
2021/03/14 02:55:26;;;;;;;0.35;0.35;;;5.60;99.90;;;;;;4996079;28;20169;-76
2021/03/14 02:57:53;;;;;;;0.40;0.40;;;5.60;99.90;;;;;;4978765;28;20185;-77
2021/03/14 03:00:23;;;;;;;0.40;0.40;;;5.70;99.90;;;;;;4978560;28;20214;-76
2021/03/14 03:02:51;;;;;;;3.13;1.20;;;5.80;99.90;;;;;;4995691;28;20207;-76
2021/03/14 03:05:19;;;;;;;1.65;1.17;;;5.70;99.90;;;;;;4995956;28;20236;-76
2021/03/14 03:07:47;;;;;;;0.20;0.20;;;5.80;99.90;;;;;;4995649;28;20217;-76
2021/03/14 03:10:15;;;;;;;0.32;0.32;;;5.70;99.90;;;;;;4995687;28;20168;-76
2021/03/14 03:12:42;;;;;;;0.20;0.20;;;5.70;99.90;;;;;;4995731;28;20265;-75
2021/03/14 03:15:09;;;;;;;0.55;0.30;;;5.70;99.90;;;;;;4995788;28;20154;-76
2021/03/14 03:17:38;;;;;;;0.20;0.20;;;5.60;99.90;;;;;;4995670;28;20189;-75
2021/03/14 03:20:06;;;;;;;0.20;0.20;;;5.50;99.90;;;;;;4977124;28;20184;-77
2021/03/14 03:22:33;;;;;;;0.20;0.20;;;5.60;99.90;;;;;;4995176;28;20233;-76
2021/03/14 03:24:58;;;;;;;0.20;0.20;;;5.50;99.90;;;;;;4995478;28;20527;-76
2021/03/14 03:27:24;;;;;;;1.58;1.13;;;5.40;99.90;;;;;;4995330;28;20280;-77
2021/03/14 03:29:51;;;;;;;5.15;0.68;;;5.40;99.90;;;;;;4995368;28;20573;-76
2021/03/14 03:32:17;;;;;;;0.20;0.20;;;5.40;99.90;;;;;;4995263;28;20158;-76
2021/03/14 03:34:42;;;;;;;1.20;1.10;;;5.40;99.90;;;;;;4995274;28;20168;-76
2021/03/14 03:37:08;;;;;;;2.15;0.77;;;5.30;99.90;;;;;;4995145;28;20539;-76
2021/03/14 03:39:34;;;;;;;0.28;0.28;;;5.40;99.90;;;;;;4995206;28;20219;-76
2021/03/14 03:42:08;;;;;;;0.40;0.40;;;5.20;99.90;;;;;;4995118;28;20201;-76
2021/03/14 03:44:36;;;;;;;0.60;0.60;;;5.30;99.90;;;;;;4995057;28;20199;-75
2021/03/14 03:47:06;;;;;;;0.80;0.50;;;5.40;99.90;;;;;;4977500;28;20665;-76
2021/03/14 03:49:33;;;;;;;10.15;1.75;;;5.30;99.90;;;;;;4994906;28;20527;-75
2021/03/14 03:52:00;;;;;;;0.43;0.43;;;5.40;99.90;;;;;;4995263;28;20184;-76
2021/03/14 03:54:28;;;;;;;1.40;1.30;;;5.50;99.90;;;;;;4994864;28;20176;-76
2021/03/14 03:56:55;;;;;;;0.50;0.50;;;5.80;99.90;;;;;;4994789;28;20216;-75
2021/03/14 03:59:22;;;;;;;4.43;2.90;;;5.30;99.90;;;;;;4994790;28;20252;-76
2021/03/14 04:01:49;;;;;;;0.68;0.68;;;5.40;99.90;;;;;;4994968;28;20588;-76
2021/03/14 04:04:16;;;;;;;0.20;0.20;;;5.30;99.90;;;;;;4994645;28;20296;-76
2021/03/14 04:06:42;;;;;;;0.20;0.20;;;5.50;99.90;;;;;;4994522;28;20182;-76
2021/03/14 04:09:09;;;;;;;0.68;0.68;;;5.40;99.90;;;;;;4994623;28;20185;-75
2021/03/14 04:11:38;;;;;;;0.40;0.40;;;5.50;99.90;;;;;;4994582;28;20158;-76
2021/03/14 04:14:06;;;;;;;1.08;0.90;;;5.70;99.90;;;;;;4994466;28;20211;-76
2021/03/14 04:16:32;;;;;;;0.40;0.40;;;5.70;99.90;;;;;;4994376;28;20181;-76
2021/03/14 04:18:58;;;;;;;0.22;0.22;;;5.80;99.90;;;;;;4994716;28;20173;-76
2021/03/14 04:21:25;;;;;;;0.82;0.82;;;5.90;99.90;;;;;;4994225;28;20284;-76
2021/03/14 04:23:53;;;;;;;0.10;0.10;;;5.90;99.90;;;;;;4994332;28;20196;-76
2021/03/14 04:26:22;;;;;;;1.30;1.27;;;5.80;99.90;;;;;;4994299;28;20699;-75
2021/03/14 04:28:51;;;;;;;5.18;1.60;;;5.90;99.90;;;;;;4994317;28;20683;-75
2021/03/14 04:31:17;;;;;;;0.10;0.10;;;6.20;99.90;;;;;;4994113;28;20172;-76
2021/03/14 04:33:43;;;;;;;3.75;1.20;;;6.20;99.90;;;;;;4994193;28;20204;-76
2021/03/14 04:36:11;;;;;;;0.80;0.80;;;6.10;99.90;;;;;;4994109;28;20617;-76
2021/03/14 04:38:38;;;;;;;0.20;0.20;;;6.20;99.90;;;;;;4976790;28;20177;-76
2021/03/14 04:41:04;;;;;;;0.60;0.60;;;6.30;99.90;;;;;;4994078;28;20161;-76
2021/03/14 04:43:31;;;;;;;0.20;0.20;;;6.30;99.90;;;;;;4994050;28;20287;-76
2021/03/14 04:45:57;;;;;;;0.10;0.10;;;6.20;99.90;;;;;;4994024;28;20248;-76
2021/03/14 04:48:23;;;;;;;0.20;0.20;;;6.30;99.90;;;;;;4993975;28;20552;-76
2021/03/14 04:50:51;;;;;;;0.20;0.20;;;6.20;99.90;;;;;;4993988;28;20256;-75
2021/03/14 04:53:19;;;;;;;1.88;1.77;;;6.10;99.90;;;;;;4993827;28;20165;-76
2021/03/14 04:55:47;;;;;;;0.38;0.38;;;6.10;99.90;;;;;;4993811;28;20252;-76
2021/03/14 04:58:17;;;;;;;0.28;0.28;;;6.20;99.90;;;;;;4993806;28;20189;-75
2021/03/14 05:00:43;;;;;;;0.25;0.25;;;6.30;99.90;;;;;;4993679;28;20173;-76
2021/03/14 05:03:12;;;;;;;0.28;0.28;;;6.30;99.90;;;;;;4994134;28;20208;-76
2021/03/14 05:05:43;;;;;;;0.20;0.20;;;6.20;99.90;;;;;;4993716;28;20165;-76
2021/03/14 05:08:10;;;;;;;2.03;1.30;;;6.30;99.90;;;;;;4976194;28;20239;-76
2021/03/14 05:10:37;;;;;;;0.20;0.20;;;6.40;99.90;;;;;;4993775;28;20529;-76
2021/03/14 05:13:04;;;;;;;0.70;0.45;;;6.40;99.90;;;;;;4993559;28;20208;-76
2021/03/14 05:15:31;;;;;;;0.35;0.35;;;6.30;99.90;;;;;;4993695;28;20216;-76
2021/03/14 05:17:57;;;;;;;4.15;1.75;;;6.40;99.90;;;;;;4976084;28;20645;-76
2021/03/14 05:20:22;;;;;;;0.28;0.28;;;6.20;99.90;;;;;;4993513;28;20173;-76
2021/03/14 05:22:50;;;;;;;0.20;0.20;;;6.00;99.90;;;;;;4993305;28;20586;-75
2021/03/14 05:25:19;;;;;;;0.30;0.30;;;5.80;99.90;;;;;;4993511;28;20559;-75
2021/03/14 05:27:50;;;;;;;0.22;0.22;;;5.60;99.90;;;;;;4993524;28;20667;-75
2021/03/14 05:30:28;;;;;;;2.72;2.05;;;5.50;99.90;;;;;;4993891;28;20176;-75
2021/03/14 05:32:55;;;;;;;0.20;0.20;;;5.60;99.90;;;;;;4976155;28;20260;-76
2021/03/14 05:35:23;;;;;;;0.68;0.68;;;5.60;99.90;;;;;;4993551;28;20157;-76
2021/03/14 05:37:49;;;;;;;0.20;0.20;;;5.70;99.90;;;;;;4975969;28;20260;-76
2021/03/14 05:40:17;;;;;;;0.35;0.35;;;5.70;99.90;;;;;;4993296;28;20162;-76
2021/03/14 05:42:43;;;;;;;0.70;0.70;;;5.80;99.90;;;;;;4995182;28;20299;-77
2021/03/14 05:45:10;;;;;;;25.77;1.83;;;5.90;99.90;;;;;;4997473;28;20680;-76
2021/03/14 05:47:38;;;;;;;1.13;1.10;;;5.80;99.90;;;;;;4996976;28;20224;-76
2021/03/14 05:50:06;;;;;;;7.32;1.55;;;5.80;99.90;;;;;;4997120;28;20697;-76
2021/03/14 05:52:32;;;;;;;0.50;0.50;;;5.80;99.90;;;;;;4997352;28;20181;-76
2021/03/14 05:55:00;;;;;;;0.20;0.20;;;5.60;99.90;;;;;;4997176;28;20166;-76
2021/03/14 05:57:26;;;;;;;0.30;0.30;;;5.70;99.90;;;;;;4979447;28;20224;-76
2021/03/14 05:59:52;;;;;;;0.22;0.22;;;5.80;99.90;;;;;;4997057;28;20211;-76
2021/03/14 06:02:19;;;;;;;0.88;0.77;;;5.90;99.90;;;;;;4979463;28;20205;-75
2021/03/14 06:04:47;;;;;;;0.13;0.13;;;5.90;99.90;;;;;;4996837;28;20165;-76
2021/03/14 06:07:13;;;;;;;0.20;0.20;;;6.00;99.90;;;;;;4996763;28;20193;-75
2021/03/14 06:09:39;;;;;;;0.17;0.17;;;5.90;99.90;;;;;;4996863;28;20170;-76
2021/03/14 06:12:09;;;;;;;0.35;0.35;;;5.90;99.90;;;;;;4996935;28;20216;-76
2021/03/14 06:14:34;;;;;;;7.30;0.80;;;6.20;99.90;;;;;;4996767;28;20621;-76
2021/03/14 06:17:00;;;;;;;0.20;0.20;;;5.90;99.90;;;;;;4996736;28;20189;-76
2021/03/14 06:19:26;;;;;;;0.20;0.20;;;6.00;99.90;;;;;;4979148;28;20260;-76
2021/03/14 06:21:51;;;;;;;5.32;1.98;;;6.00;99.90;;;;;;4996290;28;20751;-76
2021/03/14 06:24:17;;;;;;;0.30;0.30;;;6.10;99.90;;;;;;4996663;28;20576;-76
2021/03/14 06:26:48;;;;;;;0.32;0.32;;;6.00;99.90;;;;;;4996759;28;20193;-75
2021/03/14 06:29:16;;;;;;;0.20;0.20;;;6.00;99.90;;;;;;4996308;28;20153;-76
2021/03/14 06:31:47;;;;;;;0.45;0.45;;;6.20;99.90;;;;;;4996462;28;20562;-76
2021/03/14 06:34:33;;;;;;;2.13;1.42;;;6.20;99.90;;;;;;4996339;28;20251;-76
2021/03/14 06:37:19;;;;;;;0.20;0.20;;;6.10;99.90;;;;;;4996332;28;20216;-76
2021/03/14 06:39:47;;;;;;;1.58;1.50;;;6.20;99.90;;;;;;4996036;28;20189;-76
2021/03/14 06:42:32;;;;;;;0.20;0.20;;;6.10;99.90;;;;;;4996118;28;20660;-76
2021/03/14 06:45:06;;;;;;;0.28;0.28;;;6.20;99.90;;;;;;4996311;28;20160;-76
2021/03/14 06:47:41;;;;;;;13.82;0.68;;;6.30;99.90;;;;;;4995995;28;20192;-76
2021/03/14 06:50:09;;;;;;;26.42;0.73;;;6.30;99.90;;;;;;4996044;28;20161;-76
2021/03/14 06:52:36;;;;;;;0.10;0.10;;;6.50;99.90;;;;;;4995766;28;20182;-76
2021/03/14 06:55:02;;;;;;;0.32;0.32;;;6.40;99.90;;;;;;4994779;28;20677;-76
2021/03/14 06:57:28;;;;;;;0.30;0.30;;;6.40;99.90;;;;;;4995933;28;20246;-76
2021/03/14 06:59:55;;;;;;;0.43;0.43;;;6.60;99.90;;;;;;4996010;28;20252;-76
2021/03/14 07:02:29;;;;;;;0.30;0.30;;;6.70;99.90;;;;;;4995748;28;20649;-76
2021/03/14 07:04:57;;;;;;;0.20;0.20;;;6.80;99.90;;;;;;4996028;28;20154;-76
2021/03/14 07:07:26;;;;;;;0.20;0.20;;;6.50;99.90;;;;;;4995518;28;20287;-75
2021/03/14 07:09:53;;;;;;;0.38;0.38;;;6.40;99.90;;;;;;4995667;28;20161;-75
2021/03/14 07:12:38;;;;;;;0.30;0.30;;;6.30;99.90;;;;;;4995704;28;20165;-75
2021/03/14 07:15:22;;;;;;;0.10;0.10;;;6.30;99.90;;;;;;4995596;28;20692;-77
2021/03/14 07:18:00;;;;;;;2.63;1.42;;;6.50;99.90;;;;;;4977939;28;20193;-77
2021/03/14 07:20:30;;;;;;;0.47;0.47;;;6.50;99.90;;;;;;4995400;28;20526;-76
2021/03/14 07:23:02;;;;;;;0.25;0.25;;;6.60;99.90;;;;;;4995261;28;20224;-76
2021/03/14 07:25:29;;;;;;;0.17;0.17;;;6.70;99.90;;;;;;4995464;28;20158;-75
2021/03/14 07:27:55;;;;;;;0.40;0.40;;;6.80;99.90;;;;;;4995032;28;20199;-75
2021/03/14 07:30:26;;;;;;;0.30;0.30;;;6.80;99.90;;;;;;4977705;28;20169;-75
2021/03/14 07:32:52;;;;;;;0.10;0.10;;;6.70;99.90;;;;;;4995377;28;20699;-75
2021/03/14 07:35:19;;;;;;;0.20;0.20;;;6.70;99.90;;;;;;4995080;28;20166;-74
2021/03/14 07:37:45;;;;;;;0.47;0.43;;;6.70;99.90;;;;;;4986918;28;20193;-75
2021/03/14 07:40:16;;;;;;;0.20;0.20;;;6.70;99.90;;;;;;4975716;28;20167;-74
2021/03/14 07:42:43;;;;;;;0.65;0.65;;;6.90;99.90;;;;;;4975508;28;20548;-75
2021/03/14 07:45:10;;;;;;;0.20;0.20;;;6.90;99.90;;;;;;4975631;28;20182;-75
2021/03/14 07:47:38;;;;;;;0.20;0.20;;;7.00;99.90;;;;;;4975476;28;20193;-75
2021/03/14 07:50:11;;;;;;;0.28;0.28;;;7.20;99.90;;;;;;4975683;28;20181;-76
2021/03/14 07:52:40;;;;;;;1.35;0.85;;;7.30;99.90;;;;;;4975923;28;20177;-75
2021/03/14 07:55:18;;;;;;;0.40;0.40;;;7.30;99.90;;;;;;4975388;28;20158;-76
2021/03/14 07:57:45;;;;;;;0.17;0.17;;;7.60;99.90;;;;;;4975277;28;20186;-75
2021/03/14 08:00:22;;;;;;;0.47;0.38;;;7.50;99.90;;;;;;4975339;28;20162;-76
2021/03/14 08:02:56;;;;;;;0.30;0.30;;;7.50;99.90;;;;;;4975400;28;20241;-76
2021/03/14 08:05:37;;;;;;;0.10;0.10;;;7.40;99.90;;;;;;4974863;28;20622;-75
2021/03/14 08:08:04;;;;;;;0.30;0.30;;;7.50;99.90;;;;;;4975127;28;20193;-75
2021/03/14 08:10:33;;;;;;;0.30;0.30;;;7.60;99.90;;;;;;4975174;28;20174;-75
2021/03/14 08:13:00;;;;;;;0.30;0.30;;;7.60;99.90;;;;;;4974958;28;20180;-75
2021/03/14 08:15:31;;;;;;;0.20;0.20;;;7.70;99.90;;;;;;4957664;28;20166;-75
2021/03/14 08:17:58;;;;;;;0.77;0.77;;;7.70;99.90;;;;;;4974820;28;20273;-74
2021/03/14 08:20:47;;;;;;;1.08;0.82;;;7.70;99.90;;;;;;4974915;28;20633;-75
2021/03/14 08:23:16;;;;;;;0.30;0.30;;;7.60;99.90;;;;;;4974626;28;20641;-75
2021/03/14 08:25:43;;;;;;;0.77;0.75;;;7.70;99.90;;;;;;4974840;28;20162;-76
2021/03/14 08:28:28;;;;;;;0.40;0.40;;;7.70;99.90;;;;;;4957304;28;20209;-75
2021/03/14 08:31:05;;;;;;;0.20;0.20;;;7.90;99.90;;;;;;4974658;28;20162;-75
2021/03/14 08:33:42;;;;;;;0.10;0.10;;;8.00;99.90;;;;;;4974725;28;20249;-75
2021/03/14 08:36:13;;;;;;;0.75;0.60;;;8.30;99.90;;;;;;4974505;28;20165;-74
2021/03/14 08:38:51;;;;;;;1.05;1.05;;;8.50;99.90;;;;;;4957301;28;20189;-74
2021/03/14 08:41:26;;;;;;;0.40;0.40;;;8.60;99.90;;;;;;4974515;28;20170;-74
2021/03/14 08:43:51;;;;;;;3.88;1.63;;;8.70;99.90;;;;;;4974612;28;20522;-75
2021/03/14 08:46:18;;;;;;;0.32;0.32;;;8.70;99.90;;;;;;4987668;28;20245;-74
2021/03/14 08:48:44;;;;;;;0.30;0.30;;;8.70;99.90;;;;;;4993849;28;20161;-74
2021/03/14 08:51:11;;;;;;;0.40;0.40;;;8.80;99.90;;;;;;4993772;28;20173;-75
2021/03/14 08:53:37;;;;;;;0.35;0.35;;;8.80;99.90;;;;;;4993742;28;20169;-75
2021/03/14 08:56:04;;;;;;;0.40;0.40;;;8.80;99.90;;;;;;4993476;28;20200;-74
2021/03/14 08:58:30;;;;;;;0.52;0.52;;;8.60;99.90;;;;;;4993656;28;20627;-74
2021/03/14 09:01:10;;;;;;;0.30;0.30;;;8.60;99.90;;;;;;4986411;28;20264;-74
2021/03/14 09:03:44;;;;;;;0.20;0.20;;;8.50;99.90;;;;;;4991608;28;20295;-74
2021/03/14 09:06:13;;;;;;;0.20;0.20;;;8.50;99.90;;;;;;4992461;28;20253;-74
2021/03/14 09:08:52;;;;;;;0.52;0.52;;;8.40;99.90;;;;;;4992305;28;20629;-75
2021/03/14 09:11:42;;;;;;;0.20;0.20;;;8.30;99.90;;;;;;4981326;28;20648;-74
2021/03/14 09:14:30;;;;;;;0.20;0.20;;;8.50;99.90;;;;;;4972688;28;20996;-74
2021/03/14 09:17:10;;;;;;;0.20;0.20;;;8.70;99.90;;;;;;4972162;28;20196;-74
2021/03/14 09:19:46;;;;;;;0.40;0.40;;;8.70;99.90;;;;;;4971809;28;20216;-74
2021/03/14 09:22:25;;;;;;;0.75;0.75;;;8.90;99.90;;;;;;4972969;28;20263;-76
2021/03/14 09:25:01;;;;;;;0.20;0.20;;;9.10;99.90;;;;;;4990862;28;20857;-74
2021/03/14 09:27:36;;;;;;;0.40;0.30;;;9.00;99.90;;;;;;4992278;28;20189;-74
2021/03/14 09:30:32;;;;;;;1.00;1.00;;;9.10;99.90;;;;;;4991264;28;20508;-75
2021/03/14 09:33:03;;;;;;;0.63;0.63;;;9.30;99.90;;;;;;4971679;28;20272;-75
2021/03/14 09:35:34;;;;;;;0.30;0.30;;;9.50;99.90;;;;;;4992207;28;20158;-75
2021/03/14 09:38:03;;;;;;;0.20;0.20;;;9.30;99.90;;;;;;4992060;28;20623;-75
2021/03/14 09:40:34;;;;;;;0.17;0.17;;;9.40;99.90;;;;;;4991568;28;20177;-74
2021/03/14 09:43:25;;;;;;;0.30;0.30;;;9.50;99.90;;;;;;4992198;28;20232;-74
2021/03/14 09:45:59;;;;;;;0.30;0.30;;;9.60;99.90;;;;;;4991998;28;20165;-74
2021/03/14 09:48:25;;;;;;;0.20;0.20;;;9.40;99.90;;;;;;4985154;28;20241;-74
2021/03/14 09:51:10;;;;;;;0.40;0.40;;;9.40;99.90;;;;;;4972376;28;20256;-75
2021/03/14 09:53:40;;;;;;;0.22;0.17;;;9.40;99.90;;;;;;4972350;28;20634;-73
2021/03/14 09:56:12;;;;;;;0.80;0.30;;;9.40;99.90;;;;;;4972408;28;20177;-74
2021/03/14 09:58:38;;;;;;;0.40;0.40;;;9.50;99.90;;;;;;4972570;28;20632;-77
2021/03/14 10:01:06;;;;;;;0.20;0.20;;;9.50;99.90;;;;;;4973464;28;20179;-74
2021/03/14 10:03:34;;;;;;;0.50;0.50;;;9.60;99.90;;;;;;4973640;28;21099;-75
2021/03/14 10:06:01;;;;;;;0.35;0.30;;;9.50;99.90;;;;;;4992601;28;20156;-73
2021/03/14 10:08:36;;;;;;;0.82;0.73;;;9.60;99.90;;;;;;4992052;28;20161;-77
2021/03/14 10:11:04;;;;;;;0.20;0.20;;;9.50;99.90;;;;;;4991386;28;20196;-74
2021/03/14 10:13:31;;;;;;;0.57;0.57;;;9.50;99.90;;;;;;4991961;28;20165;-76
2021/03/14 10:16:03;;;;;;;0.30;0.30;;;9.60;99.90;;;;;;4991865;28;20632;-74
2021/03/14 10:18:30;;;;;;;0.32;0.32;;;9.70;99.90;;;;;;4974571;28;20181;-74
2021/03/14 10:21:17;;;;;;;0.38;0.38;;;9.60;99.90;;;;;;4991211;28;20188;-75
2021/03/14 10:23:43;;;;;;;8.57;2.05;;;9.60;99.90;;;;;;4991744;28;20225;-74
2021/03/14 10:26:09;;;;;;;0.20;0.20;;;9.50;99.90;;;;;;4991490;28;20228;-76
2021/03/14 10:28:36;;;;;;;0.70;0.43;;;9.50;99.90;;;;;;4993038;28;20568;-76
2021/03/14 10:31:06;;;;;;;0.52;0.40;;;9.60;99.90;;;;;;4973988;28;20174;-74
2021/03/14 10:33:37;;;;;;;1.65;1.17;;;9.70;99.90;;;;;;4975822;28;20178;-75
2021/03/14 10:36:05;;;;;;;0.22;0.22;;;9.90;99.90;;;;;;4974341;28;20177;-75
2021/03/14 10:38:45;;;;;;;0.82;0.82;;;10.10;99.90;;;;;;4993914;28;20479;-75
2021/03/14 10:41:16;;;;;;;0.32;0.32;;;10.20;99.90;;;;;;4993892;28;20197;-74
2021/03/14 10:43:52;;;;;;;1.42;0.38;;;10.30;99.90;;;;;;4995003;28;20247;-75
2021/03/14 10:46:50;;;;;;;0.20;0.20;;;10.30;99.90;;;;;;4994733;28;20184;-75
2021/03/14 10:49:23;;;;;;;0.20;0.20;;;9.80;99.90;;;;;;4994480;28;20618;-75
2021/03/14 10:51:57;;;;;;;1.20;0.73;;;9.20;99.90;;;;;;4994332;28;20185;-75
2021/03/14 10:54:31;;;;;;;17.45;0.52;;;9.10;99.90;;;;;;4976916;28;20223;-76
2021/03/14 10:56:57;;;;;;;0.17;0.17;;;9.10;99.90;;;;;;4994424;28;20196;-75
2021/03/14 10:59:33;;;;;;;0.25;0.25;;;9.20;99.90;;;;;;4985305;28;20814;-76
2021/03/14 11:02:32;;;;;;;0.10;0.10;;;9.30;99.90;;;;;;4955923;28;20641;-76
2021/03/14 11:04:59;;;;;;;0.38;0.38;;;9.50;99.90;;;;;;4989160;28;20648;-76
2021/03/14 11:07:37;;;;;;;0.30;0.30;;;9.70;99.90;;;;;;4975047;28;20281;-76
2021/03/14 11:10:12;;;;;;;0.52;0.45;;;10.00;99.90;;;;;;4975047;28;20184;-76
2021/03/14 11:12:42;;;;;;;0.22;0.22;;;10.10;99.90;;;;;;4974791;28;20184;-76
2021/03/14 11:15:26;;;;;;;0.10;0.10;;;10.00;99.90;;;;;;4974930;28;20159;-76
2021/03/14 11:17:53;;;;;;;0.40;0.40;;;10.20;99.90;;;;;;4975045;28;20178;-76
2021/03/14 11:20:20;;;;;;;0.30;0.30;;;10.10;99.90;;;;;;4974310;28;20751;-76
2021/03/14 11:22:53;;;;;;;0.35;0.30;;;10.30;99.90;;;;;;4974141;28;20681;-76
2021/03/14 11:25:19;;;;;;;0.47;0.47;;;10.50;99.90;;;;;;4992324;28;20243;-76
2021/03/14 11:27:46;;;;;;;0.30;0.30;;;10.60;99.90;;;;;;4994053;28;20196;-75
2021/03/14 11:30:12;;;;;;;0.40;0.40;;;10.40;99.90;;;;;;4993197;28;20203;-76
2021/03/14 11:32:38;;;;;;;0.52;0.40;;;10.40;99.90;;;;;;4993313;28;20252;-75
2021/03/14 11:35:05;;;;;;;6.35;2.58;;;10.50;99.90;;;;;;4989177;28;20565;-74
2021/03/14 11:37:30;;;;;;;0.20;0.20;;;10.30;99.90;;;;;;4974313;28;20294;-74
2021/03/14 11:39:56;;;;;;;0.63;0.63;;;10.30;99.90;;;;;;4973461;28;20253;-76
2021/03/14 11:42:21;;;;;;;0.73;0.70;;;10.50;99.90;;;;;;4974177;28;20273;-74
2021/03/14 11:44:47;;;;;;;0.20;0.20;;;10.60;99.90;;;;;;4973889;28;20173;-75
2021/03/14 11:47:13;;;;;;;0.45;0.45;;;10.90;99.90;;;;;;4973813;28;20556;-74
2021/03/14 11:49:38;;;;;;;0.20;0.20;;;10.70;99.90;;;;;;4974324;28;20178;-74
2021/03/14 11:52:04;;;;;;;0.32;0.32;;;10.50;99.90;;;;;;4974530;28;20178;-74
2021/03/14 11:54:30;;;;;;;0.57;0.57;;;10.50;99.90;;;;;;4973688;28;20206;-74
2021/03/14 11:56:55;;;;;;;1.60;1.50;;;10.30;99.90;;;;;;4973975;28;20190;-75
2021/03/14 11:59:21;;;;;;;0.55;0.55;;;10.30;99.90;;;;;;4956207;28;20252;-74
2021/03/14 12:01:49;;;;;;;0.20;0.20;;;10.20;99.90;;;;;;4973765;28;20205;-75
2021/03/14 12:04:16;;;;;;;0.40;0.40;;;10.20;99.90;;;;;;4973703;28;20224;-75
2021/03/14 12:06:41;;;;;;;0.30;0.30;;;10.20;99.90;;;;;;4973829;28;20610;-75
2021/03/14 12:09:07;;;;;;;0.20;0.20;;;10.60;99.90;;;;;;4974078;28;20245;-74
2021/03/14 12:11:36;;;;;;;1.60;0.68;;;10.90;99.90;;;;;;4956748;28;20208;-74
2021/03/14 12:14:02;;;;;;;0.70;0.60;;;11.10;99.90;;;;;;4973760;28;20290;-74
2021/03/14 12:16:28;;;;;;;0.60;0.60;;;11.20;99.90;;;;;;4973471;28;20720;-74
2021/03/14 12:18:54;;;;;;;0.30;0.30;;;11.00;99.90;;;;;;4973731;28;20170;-75
2021/03/14 12:21:20;;;;;;;0.20;0.20;;;11.00;99.90;;;;;;4973304;28;20170;-74
2021/03/14 12:23:45;;;;;;;1.55;0.63;;;10.90;99.90;;;;;;4956002;28;20214;-75
2021/03/14 12:26:11;;;;;;;15.80;0.80;;;10.90;99.90;;;;;;4973115;28;20184;-77
2021/03/14 12:28:37;;;;;;;0.20;0.20;;;10.90;99.90;;;;;;4956103;28;20172;-75
2021/03/14 12:31:03;;;;;;;0.25;0.25;;;11.00;99.90;;;;;;4973332;28;20174;-74
2021/03/14 12:33:28;;;;;;;0.30;0.30;;;11.00;99.90;;;;;;4955836;28;20189;-75
2021/03/14 12:35:54;;;;;;;0.50;0.50;;;11.00;99.90;;;;;;4972727;28;20178;-75
2021/03/14 12:38:20;;;;;;;1.13;0.63;;;11.00;99.90;;;;;;4973666;28;20197;-74
2021/03/14 12:40:46;;;;;;;0.28;0.28;;;10.90;99.90;;;;;;4956674;28;20174;-74
2021/03/14 12:43:21;;;;;;;1.50;1.40;;;10.80;99.90;;;;;;4973563;28;20219;-74
2021/03/14 12:45:49;;;;;;;0.20;0.20;;;10.70;99.90;;;;;;4974146;28;20164;-73
2021/03/14 12:48:16;;;;;;;0.20;0.20;;;10.60;99.90;;;;;;4988311;23;20190;-76
2021/03/14 12:50:42;;;;;;;0.47;0.47;;;10.60;99.90;;;;;;4972724;28;20204;-76
2021/03/14 12:53:07;;;;;;;7.00;1.52;;;10.60;99.90;;;;;;4974216;28;20167;-76
2021/03/14 12:55:33;;;;;;;0.40;0.40;;;10.70;99.90;;;;;;4975569;28;20170;-76
2021/03/14 12:57:59;;;;;;;1.20;1.13;;;10.80;99.90;;;;;;4973999;28;20186;-77
2021/03/14 13:00:25;;;;;;;1.75;0.63;;;10.80;99.90;;;;;;4974130;28;20162;-75
2021/03/14 13:02:50;;;;;;;4.38;0.73;;;10.80;99.90;;;;;;4974723;28;20216;-77
2021/03/14 13:05:16;;;;;;;0.40;0.40;;;10.60;99.90;;;;;;4975612;28;20158;-77